This is the latest recevied weather packets stored in our database for station/object DG4DAA-13. If no packets are shown the sender has not sent any weather packets the latest 10 day(s).
| Time | Temp. | Humidity | Pressure | Rain* | Wind** | Luminosity | Snow |
|---|---|---|---|---|---|---|---|
| 1777419519 | 8.33° C | 59% | 1027.6 hPa | 0 mm | - | - | - |
| 1777417719 | 8.89° C | 56% | 1027.3 hPa | 0 mm | - | - | - |
| 1777415919 | 9.44° C | 55% | 1027.2 hPa | 0 mm | - | - | - |
| 1777414119 | 10° C | 54% | 1027.1 hPa | 0 mm | - | - | - |
| 1777412319 | 10.56° C | 53% | 1026.9 hPa | 0 mm | - | - | - |
| 1777410519 | 11.11° C | 51% | 1026.6 hPa | 0 mm | - | - | - |
| 1777408719 | 11.67° C | 50% | 1026.5 hPa | 0 mm | - | - | - |
| 1777406919 | 12.22° C | 49% | 1026.3 hPa | 0 mm | - | - | - |
| 1777405119 | 12.78° C | 47% | 1026 hPa | 0 mm | - | - | - |
| 1777403319 | 13.33° C | 48% | 1025.7 hPa | 0 mm | - | - | - |
| 1777401519 | 14.44° C | 44% | 1025.4 hPa | 0 mm | - | - | - |
| 1777399719 | 15.56° C | 41% | 1025.1 hPa | 0 mm | - | - | - |
| 1777397919 | 16.11° C | 41% | 1024.6 hPa | 0 mm | - | - | - |
| 1777396119 | 16.67° C | 45% | 1024.5 hPa | 0 mm | - | - | - |
| 1777394319 | 16.67° C | 44% | 1024.4 hPa | 0 mm | - | - | - |
| 1777392520 | 17.22° C | 43% | 1024.2 hPa | 0 mm | - | - | - |
| 1777390722 | 17.22° C | 41% | 1024.3 hPa | 0 mm | - | - | - |
| 1777390719 | 17.22° C | 41% | 1024.3 hPa | 0 mm | - | - | - |
| 1777388920 | 17.22° C | 43% | 1024.3 hPa | 0 mm | - | - | - |
| 1777387120 | 17.22° C | 44% | 1024.3 hPa | 0 mm | - | - | - |
| 1777385320 | 17.22° C | 45% | 1024.5 hPa | 0 mm | - | - | - |
| 1777383520 | 17.78° C | 45% | 1024.6 hPa | 0 mm | - | - | - |
| 1777381720 | 17.78° C | 44% | 1024.5 hPa | 0 mm | - | - | - |
| 1777379920 | 18.33° C | 43% | 1024.6 hPa | 0 mm | - | - | - |
| 1777378120 | 17.78° C | 43% | 1024.7 hPa | 0.25 mm | - | - | - |
* Rain latest hour (hover to see other rain measurements)
** Current wind speed in m/s (hover to see current wind gust speed)